sensor_id;sensor_type;location;lat;lon;timestamp;P1;durP1;ratioP1;P2;durP2;ratioP2
18612;SDS011;9436;52.152;21.032;2022-07-17T00:00:37;2.40;;;1.93;;
18612;SDS011;9436;52.152;21.032;2022-07-17T00:03:07;3.07;;;2.13;;
18612;SDS011;9436;52.152;21.032;2022-07-17T00:05:35;3.97;;;2.33;;
18612;SDS011;9436;52.152;21.032;2022-07-17T00:08:02;4.57;;;2.20;;
18612;SDS011;9436;52.152;21.032;2022-07-17T00:10:31;3.17;;;2.17;;
18612;SDS011;9436;52.152;21.032;2022-07-17T00:12:58;4.87;;;2.33;;
18612;SDS011;9436;52.152;21.032;2022-07-17T00:15:25;2.77;;;2.10;;
18612;SDS011;9436;52.152;21.032;2022-07-17T00:17:52;6.17;;;2.30;;
18612;SDS011;9436;52.152;21.032;2022-07-17T00:20:19;3.77;;;2.07;;
18612;SDS011;9436;52.152;21.032;2022-07-17T00:22:48;3.00;;;1.87;;
18612;SDS011;9436;52.152;21.032;2022-07-17T00:25:15;2.47;;;1.90;;
18612;SDS011;9436;52.152;21.032;2022-07-17T00:27:42;2.63;;;2.20;;
18612;SDS011;9436;52.152;21.032;2022-07-17T00:30:09;3.43;;;2.43;;
18612;SDS011;9436;52.152;21.032;2022-07-17T00:32:37;4.03;;;2.33;;
18612;SDS011;9436;52.152;21.032;2022-07-17T00:35:05;3.00;;;1.93;;
18612;SDS011;9436;52.152;21.032;2022-07-17T00:37:37;3.27;;;2.10;;
18612;SDS011;9436;52.152;21.032;2022-07-17T00:40:07;3.57;;;2.10;;
18612;SDS011;9436;52.152;21.032;2022-07-17T00:42:37;3.90;;;2.40;;
18612;SDS011;9436;52.152;21.032;2022-07-17T00:45:05;4.20;;;2.57;;
18612;SDS011;9436;52.152;21.032;2022-07-17T00:47:32;2.77;;;2.30;;
18612;SDS011;9436;52.152;21.032;2022-07-17T00:50:00;3.20;;;2.50;;
18612;SDS011;9436;52.152;21.032;2022-07-17T00:52:27;4.93;;;2.80;;
18612;SDS011;9436;52.152;21.032;2022-07-17T00:54:54;2.73;;;2.53;;
18612;SDS011;9436;52.152;21.032;2022-07-17T00:57:25;3.17;;;2.50;;
18612;SDS011;9436;52.152;21.032;2022-07-17T00:59:54;3.00;;;2.40;;
18612;SDS011;9436;52.152;21.032;2022-07-17T01:02:21;4.13;;;2.50;;
18612;SDS011;9436;52.152;21.032;2022-07-17T01:04:48;3.53;;;2.60;;
18612;SDS011;9436;52.152;21.032;2022-07-17T01:07:15;5.63;;;2.63;;
18612;SDS011;9436;52.152;21.032;2022-07-17T01:09:43;2.60;;;2.40;;
18612;SDS011;9436;52.152;21.032;2022-07-17T01:12:10;3.80;;;2.60;;
18612;SDS011;9436;52.152;21.032;2022-07-17T01:14:39;3.50;;;2.60;;
18612;SDS011;9436;52.152;21.032;2022-07-17T01:17:06;6.00;;;2.77;;
18612;SDS011;9436;52.152;21.032;2022-07-17T01:19:33;3.60;;;2.57;;
18612;SDS011;9436;52.152;21.032;2022-07-17T01:22:02;3.67;;;2.60;;
18612;SDS011;9436;52.152;21.032;2022-07-17T01:24:29;4.70;;;2.60;;
18612;SDS011;9436;52.152;21.032;2022-07-17T01:26:56;3.40;;;2.60;;
18612;SDS011;9436;52.152;21.032;2022-07-17T01:29:23;6.30;;;3.00;;
18612;SDS011;9436;52.152;21.032;2022-07-17T01:31:50;3.53;;;2.50;;
18612;SDS011;9436;52.152;21.032;2022-07-17T01:34:17;2.47;;;2.27;;
18612;SDS011;9436;52.152;21.032;2022-07-17T01:36:44;3.20;;;2.30;;
18612;SDS011;9436;52.152;21.032;2022-07-17T01:39:13;3.27;;;2.60;;
18612;SDS011;9436;52.152;21.032;2022-07-17T01:41:40;4.87;;;2.67;;
18612;SDS011;9436;52.152;21.032;2022-07-17T01:44:06;3.47;;;2.50;;
18612;SDS011;9436;52.152;21.032;2022-07-17T01:46:33;4.43;;;2.60;;
18612;SDS011;9436;52.152;21.032;2022-07-17T01:49:00;2.90;;;2.30;;
18612;SDS011;9436;52.152;21.032;2022-07-17T01:51:28;3.60;;;2.57;;
18612;SDS011;9436;52.152;21.032;2022-07-17T01:53:55;4.00;;;3.00;;
18612;SDS011;9436;52.152;21.032;2022-07-17T01:56:23;2.97;;;2.40;;
18612;SDS011;9436;52.152;21.032;2022-07-17T01:58:50;4.27;;;3.07;;
18612;SDS011;9436;52.152;21.032;2022-07-17T02:01:17;5.87;;;2.90;;
18612;SDS011;9436;52.152;21.032;2022-07-17T02:03:44;4.97;;;2.60;;
18612;SDS011;9436;52.152;21.032;2022-07-17T02:06:11;4.33;;;2.73;;
18612;SDS011;9436;52.152;21.032;2022-07-17T02:08:38;5.37;;;3.00;;
18612;SDS011;9436;52.152;21.032;2022-07-17T02:11:05;4.87;;;2.60;;
18612;SDS011;9436;52.152;21.032;2022-07-17T02:13:33;4.23;;;2.90;;
18612;SDS011;9436;52.152;21.032;2022-07-17T02:16:00;7.00;;;2.87;;
18612;SDS011;9436;52.152;21.032;2022-07-17T02:18:27;4.63;;;3.20;;
18612;SDS011;9436;52.152;21.032;2022-07-17T02:20:54;4.03;;;2.93;;
18612;SDS011;9436;52.152;21.032;2022-07-17T02:23:21;6.10;;;3.20;;
18612;SDS011;9436;52.152;21.032;2022-07-17T02:25:48;4.40;;;3.20;;
18612;SDS011;9436;52.152;21.032;2022-07-17T02:28:15;4.27;;;3.53;;
18612;SDS011;9436;52.152;21.032;2022-07-17T02:30:43;5.30;;;3.53;;
18612;SDS011;9436;52.152;21.032;2022-07-17T02:33:11;5.93;;;3.70;;
18612;SDS011;9436;52.152;21.032;2022-07-17T02:35:38;7.23;;;3.77;;
18612;SDS011;9436;52.152;21.032;2022-07-17T02:38:05;4.50;;;3.63;;
18612;SDS011;9436;52.152;21.032;2022-07-17T02:40:32;3.83;;;3.40;;
18612;SDS011;9436;52.152;21.032;2022-07-17T02:42:59;5.03;;;3.80;;
18612;SDS011;9436;52.152;21.032;2022-07-17T02:45:26;5.43;;;3.73;;
18612;SDS011;9436;52.152;21.032;2022-07-17T02:47:55;4.87;;;3.60;;
18612;SDS011;9436;52.152;21.032;2022-07-17T02:50:22;4.90;;;3.20;;
18612;SDS011;9436;52.152;21.032;2022-07-17T02:52:49;4.53;;;3.40;;
18612;SDS011;9436;52.152;21.032;2022-07-17T02:55:16;5.90;;;3.50;;
18612;SDS011;9436;52.152;21.032;2022-07-17T02:57:44;5.43;;;3.33;;
18612;SDS011;9436;52.152;21.032;2022-07-17T03:00:12;5.03;;;3.20;;
18612;SDS011;9436;52.152;21.032;2022-07-17T03:02:41;8.23;;;3.73;;
18612;SDS011;9436;52.152;21.032;2022-07-17T03:05:10;5.33;;;3.60;;
18612;SDS011;9436;52.152;21.032;2022-07-17T03:07:37;5.40;;;3.60;;
18612;SDS011;9436;52.152;21.032;2022-07-17T03:10:05;5.77;;;3.70;;
18612;SDS011;9436;52.152;21.032;2022-07-17T03:12:32;4.97;;;4.00;;
18612;SDS011;9436;52.152;21.032;2022-07-17T03:14:59;5.00;;;3.67;;
18612;SDS011;9436;52.152;21.032;2022-07-17T03:17:26;4.27;;;3.37;;
18612;SDS011;9436;52.152;21.032;2022-07-17T03:19:53;4.83;;;3.80;;
18612;SDS011;9436;52.152;21.032;2022-07-17T03:22:22;4.60;;;3.67;;
18612;SDS011;9436;52.152;21.032;2022-07-17T03:24:49;4.83;;;3.47;;
18612;SDS011;9436;52.152;21.032;2022-07-17T03:27:16;5.33;;;3.60;;
18612;SDS011;9436;52.152;21.032;2022-07-17T03:29:43;5.03;;;3.30;;
18612;SDS011;9436;52.152;21.032;2022-07-17T03:32:10;3.93;;;3.27;;
18612;SDS011;9436;52.152;21.032;2022-07-17T03:34:38;3.77;;;3.17;;
18612;SDS011;9436;52.152;21.032;2022-07-17T03:37:05;3.77;;;3.30;;
18612;SDS011;9436;52.152;21.032;2022-07-17T03:39:33;5.43;;;3.60;;
18612;SDS011;9436;52.152;21.032;2022-07-17T03:42:00;6.67;;;3.40;;
18612;SDS011;9436;52.152;21.032;2022-07-17T03:44:27;6.10;;;3.10;;
18612;SDS011;9436;52.152;21.032;2022-07-17T03:46:55;4.37;;;3.50;;
18612;SDS011;9436;52.152;21.032;2022-07-17T03:49:22;4.63;;;3.30;;
18612;SDS011;9436;52.152;21.032;2022-07-17T03:51:49;5.20;;;3.70;;
18612;SDS011;9436;52.152;21.032;2022-07-17T03:54:16;5.93;;;3.40;;
18612;SDS011;9436;52.152;21.032;2022-07-17T03:56:45;6.03;;;3.33;;
18612;SDS011;9436;52.152;21.032;2022-07-17T03:59:12;5.07;;;3.73;;
18612;SDS011;9436;52.152;21.032;2022-07-17T04:01:39;5.37;;;3.40;;
18612;SDS011;9436;52.152;21.032;2022-07-17T04:04:06;5.63;;;3.70;;
18612;SDS011;9436;52.152;21.032;2022-07-17T04:06:33;4.87;;;3.43;;
18612;SDS011;9436;52.152;21.032;2022-07-17T04:09:00;6.13;;;3.67;;
18612;SDS011;9436;52.152;21.032;2022-07-17T04:11:27;4.20;;;3.20;;
18612;SDS011;9436;52.152;21.032;2022-07-17T04:13:56;6.23;;;3.70;;
18612;SDS011;9436;52.152;21.032;2022-07-17T04:16:23;5.13;;;3.10;;
18612;SDS011;9436;52.152;21.032;2022-07-17T04:18:50;5.70;;;3.30;;
18612;SDS011;9436;52.152;21.032;2022-07-17T04:21:17;4.10;;;3.10;;
18612;SDS011;9436;52.152;21.032;2022-07-17T04:23:44;5.17;;;2.97;;
18612;SDS011;9436;52.152;21.032;2022-07-17T04:26:11;4.93;;;2.97;;
18612;SDS011;9436;52.152;21.032;2022-07-17T04:28:38;5.20;;;3.30;;
18612;SDS011;9436;52.152;21.032;2022-07-17T04:31:06;4.83;;;2.93;;
18612;SDS011;9436;52.152;21.032;2022-07-17T04:33:34;4.83;;;3.10;;
18612;SDS011;9436;52.152;21.032;2022-07-17T04:36:02;5.50;;;3.13;;
18612;SDS011;9436;52.152;21.032;2022-07-17T04:38:29;5.13;;;3.23;;
18612;SDS011;9436;52.152;21.032;2022-07-17T04:40:56;4.50;;;3.00;;
18612;SDS011;9436;52.152;21.032;2022-07-17T04:43:23;3.13;;;2.80;;
18612;SDS011;9436;52.152;21.032;2022-07-17T04:45:50;4.60;;;2.90;;
18612;SDS011;9436;52.152;21.032;2022-07-17T04:48:19;6.27;;;3.13;;
18612;SDS011;9436;52.152;21.032;2022-07-17T04:50:46;5.27;;;3.10;;
18612;SDS011;9436;52.152;21.032;2022-07-17T04:53:13;5.60;;;3.10;;
18612;SDS011;9436;52.152;21.032;2022-07-17T04:55:40;3.83;;;2.90;;
18612;SDS011;9436;52.152;21.032;2022-07-17T04:58:06;4.80;;;2.87;;
18612;SDS011;9436;52.152;21.032;2022-07-17T05:00:34;4.53;;;2.50;;
18612;SDS011;9436;52.152;21.032;2022-07-17T05:03:01;3.10;;;2.57;;
18612;SDS011;9436;52.152;21.032;2022-07-17T05:05:29;3.33;;;2.30;;
18612;SDS011;9436;52.152;21.032;2022-07-17T05:07:56;2.97;;;2.20;;
18612;SDS011;9436;52.152;21.032;2022-07-17T05:10:23;4.30;;;2.30;;
18612;SDS011;9436;52.152;21.032;2022-07-17T05:12:50;5.17;;;2.70;;
18612;SDS011;9436;52.152;21.032;2022-07-17T05:15:17;3.63;;;2.30;;
18612;SDS011;9436;52.152;21.032;2022-07-17T05:17:44;4.33;;;2.53;;
18612;SDS011;9436;52.152;21.032;2022-07-17T05:20:11;3.93;;;2.40;;
18612;SDS011;9436;52.152;21.032;2022-07-17T05:22:39;3.80;;;2.40;;
18612;SDS011;9436;52.152;21.032;2022-07-17T05:25:07;5.37;;;2.20;;
18612;SDS011;9436;52.152;21.032;2022-07-17T05:27:34;5.53;;;2.87;;
18612;SDS011;9436;52.152;21.032;2022-07-17T05:30:02;5.17;;;2.57;;
18612;SDS011;9436;52.152;21.032;2022-07-17T05:32:29;3.63;;;2.60;;
18612;SDS011;9436;52.152;21.032;2022-07-17T05:34:56;4.17;;;2.77;;
18612;SDS011;9436;52.152;21.032;2022-07-17T05:37:23;7.37;;;3.00;;
18612;SDS011;9436;52.152;21.032;2022-07-17T05:39:51;5.33;;;2.40;;
18612;SDS011;9436;52.152;21.032;2022-07-17T05:42:18;4.07;;;2.50;;
18612;SDS011;9436;52.152;21.032;2022-07-17T05:44:45;4.60;;;2.40;;
18612;SDS011;9436;52.152;21.032;2022-07-17T05:47:12;4.23;;;2.50;;
18612;SDS011;9436;52.152;21.032;2022-07-17T05:49:39;5.30;;;2.90;;
18612;SDS011;9436;52.152;21.032;2022-07-17T05:52:06;6.07;;;2.60;;
18612;SDS011;9436;52.152;21.032;2022-07-17T05:54:33;4.60;;;2.40;;
18612;SDS011;9436;52.152;21.032;2022-07-17T05:57:01;3.63;;;2.40;;
18612;SDS011;9436;52.152;21.032;2022-07-17T05:59:29;4.80;;;2.60;;
18612;SDS011;9436;52.152;21.032;2022-07-17T06:01:56;3.87;;;2.23;;
18612;SDS011;9436;52.152;21.032;2022-07-17T06:04:23;4.63;;;2.50;;
18612;SDS011;9436;52.152;21.032;2022-07-17T06:06:50;5.00;;;2.80;;
18612;SDS011;9436;52.152;21.032;2022-07-17T06:09:17;2.90;;;2.60;;
18612;SDS011;9436;52.152;21.032;2022-07-17T06:11:44;5.07;;;2.87;;
18612;SDS011;9436;52.152;21.032;2022-07-17T06:14:12;6.43;;;2.90;;
18612;SDS011;9436;52.152;21.032;2022-07-17T06:16:40;4.83;;;2.80;;
18612;SDS011;9436;52.152;21.032;2022-07-17T06:19:07;6.00;;;3.07;;
18612;SDS011;9436;52.152;21.032;2022-07-17T06:21:34;3.23;;;2.87;;
18612;SDS011;9436;52.152;21.032;2022-07-17T06:24:01;4.03;;;3.20;;
18612;SDS011;9436;52.152;21.032;2022-07-17T06:26:28;4.43;;;3.10;;
18612;SDS011;9436;52.152;21.032;2022-07-17T06:28:55;5.97;;;3.50;;
18612;SDS011;9436;52.152;21.032;2022-07-17T06:31:23;4.50;;;4.13;;
18612;SDS011;9436;52.152;21.032;2022-07-17T06:33:50;5.53;;;4.80;;
18612;SDS011;9436;52.152;21.032;2022-07-17T06:36:17;6.73;;;5.50;;
18612;SDS011;9436;52.152;21.032;2022-07-17T06:38:44;5.50;;;4.93;;
18612;SDS011;9436;52.152;21.032;2022-07-17T06:41:11;6.57;;;4.70;;
18612;SDS011;9436;52.152;21.032;2022-07-17T06:43:38;6.13;;;4.77;;
18612;SDS011;9436;52.152;21.032;2022-07-17T06:46:05;5.77;;;5.23;;
18612;SDS011;9436;52.152;21.032;2022-07-17T06:48:34;7.77;;;6.00;;
18612;SDS011;9436;52.152;21.032;2022-07-17T06:51:00;6.23;;;5.10;;
18612;SDS011;9436;52.152;21.032;2022-07-17T06:53:28;7.00;;;5.57;;
18612;SDS011;9436;52.152;21.032;2022-07-17T06:55:54;5.50;;;5.00;;
18612;SDS011;9436;52.152;21.032;2022-07-17T06:58:21;7.30;;;4.83;;
18612;SDS011;9436;52.152;21.032;2022-07-17T07:00:48;5.37;;;4.80;;
18612;SDS011;9436;52.152;21.032;2022-07-17T07:03:15;5.37;;;4.87;;
18612;SDS011;9436;52.152;21.032;2022-07-17T07:05:44;5.53;;;4.80;;
18612;SDS011;9436;52.152;21.032;2022-07-17T07:08:11;5.20;;;4.70;;
18612;SDS011;9436;52.152;21.032;2022-07-17T07:10:38;7.37;;;4.90;;
18612;SDS011;9436;52.152;21.032;2022-07-17T07:13:05;5.27;;;4.30;;
18612;SDS011;9436;52.152;21.032;2022-07-17T07:15:32;5.20;;;4.00;;
18612;SDS011;9436;52.152;21.032;2022-07-17T07:17:59;4.77;;;4.37;;
18612;SDS011;9436;52.152;21.032;2022-07-17T07:20:26;4.40;;;4.00;;
18612;SDS011;9436;52.152;21.032;2022-07-17T07:22:54;4.40;;;4.00;;
18612;SDS011;9436;52.152;21.032;2022-07-17T07:25:21;5.30;;;4.20;;
18612;SDS011;9436;52.152;21.032;2022-07-17T07:27:48;4.03;;;3.63;;
18612;SDS011;9436;52.152;21.032;2022-07-17T07:30:15;5.50;;;4.13;;
18612;SDS011;9436;52.152;21.032;2022-07-17T07:32:44;5.67;;;4.40;;
18612;SDS011;9436;52.152;21.032;2022-07-17T07:35:10;5.70;;;4.10;;
18612;SDS011;9436;52.152;21.032;2022-07-17T07:37:38;4.33;;;3.60;;
18612;SDS011;9436;52.152;21.032;2022-07-17T07:40:07;8.20;;;4.40;;
18612;SDS011;9436;52.152;21.032;2022-07-17T07:42:34;6.47;;;4.90;;
18612;SDS011;9436;52.152;21.032;2022-07-17T07:45:01;7.17;;;5.33;;
18612;SDS011;9436;52.152;21.032;2022-07-17T07:47:29;6.43;;;5.50;;
18612;SDS011;9436;52.152;21.032;2022-07-17T07:49:56;5.97;;;5.43;;
18612;SDS011;9436;52.152;21.032;2022-07-17T07:52:23;5.03;;;4.20;;
18612;SDS011;9436;52.152;21.032;2022-07-17T07:54:50;5.47;;;4.53;;
18612;SDS011;9436;52.152;21.032;2022-07-17T07:57:18;6.60;;;4.37;;
18612;SDS011;9436;52.152;21.032;2022-07-17T07:59:46;8.17;;;4.90;;
18612;SDS011;9436;52.152;21.032;2022-07-17T08:02:13;6.23;;;4.47;;
18612;SDS011;9436;52.152;21.032;2022-07-17T08:04:40;5.97;;;4.20;;
18612;SDS011;9436;52.152;21.032;2022-07-17T08:07:07;5.53;;;3.93;;
18612;SDS011;9436;52.152;21.032;2022-07-17T08:09:34;5.17;;;4.10;;
18612;SDS011;9436;52.152;21.032;2022-07-17T08:12:01;4.30;;;3.90;;
18612;SDS011;9436;52.152;21.032;2022-07-17T08:14:30;7.17;;;5.03;;
18612;SDS011;9436;52.152;21.032;2022-07-17T08:16:57;5.73;;;5.23;;
18612;SDS011;9436;52.152;21.032;2022-07-17T08:19:23;4.60;;;3.80;;
18612;SDS011;9436;52.152;21.032;2022-07-17T08:21:50;4.73;;;4.10;;
18612;SDS011;9436;52.152;21.032;2022-07-17T08:24:17;4.30;;;3.83;;
18612;SDS011;9436;52.152;21.032;2022-07-17T08:26:44;4.07;;;3.53;;
18612;SDS011;9436;52.152;21.032;2022-07-17T08:29:11;4.30;;;3.30;;
18612;SDS011;9436;52.152;21.032;2022-07-17T08:31:42;3.83;;;3.30;;
18612;SDS011;9436;52.152;21.032;2022-07-17T08:34:09;6.20;;;4.30;;
18612;SDS011;9436;52.152;21.032;2022-07-17T08:36:36;4.47;;;3.30;;
18612;SDS011;9436;52.152;21.032;2022-07-17T08:39:03;4.13;;;3.30;;
18612;SDS011;9436;52.152;21.032;2022-07-17T08:41:30;4.17;;;3.13;;
18612;SDS011;9436;52.152;21.032;2022-07-17T08:44:02;4.53;;;2.50;;
18612;SDS011;9436;52.152;21.032;2022-07-17T08:46:29;3.37;;;2.20;;
18612;SDS011;9436;52.152;21.032;2022-07-17T08:48:58;4.53;;;2.50;;
18612;SDS011;9436;52.152;21.032;2022-07-17T08:51:26;2.40;;;2.20;;
18612;SDS011;9436;52.152;21.032;2022-07-17T08:53:53;2.27;;;2.07;;
18612;SDS011;9436;52.152;21.032;2022-07-17T08:56:21;2.83;;;2.27;;
18612;SDS011;9436;52.152;21.032;2022-07-17T08:58:48;2.93;;;2.20;;
18612;SDS011;9436;52.152;21.032;2022-07-17T09:01:16;3.77;;;2.03;;
18612;SDS011;9436;52.152;21.032;2022-07-17T09:03:53;4.43;;;1.90;;
18612;SDS011;9436;52.152;21.032;2022-07-17T09:06:22;3.77;;;1.80;;
18612;SDS011;9436;52.152;21.032;2022-07-17T09:08:59;3.90;;;1.80;;
18612;SDS011;9436;52.152;21.032;2022-07-17T09:11:27;3.47;;;1.70;;
18612;SDS011;9436;52.152;21.032;2022-07-17T09:13:55;5.47;;;1.70;;
18612;SDS011;9436;52.152;21.032;2022-07-17T09:16:22;2.83;;;1.70;;
18612;SDS011;9436;52.152;21.032;2022-07-17T09:18:50;2.63;;;1.70;;
18612;SDS011;9436;52.152;21.032;2022-07-17T09:21:20;1.93;;;1.60;;
18612;SDS011;9436;52.152;21.032;2022-07-17T09:23:59;3.77;;;1.60;;
18612;SDS011;9436;52.152;21.032;2022-07-17T09:26:27;3.03;;;1.60;;
18612;SDS011;9436;52.152;21.032;2022-07-17T09:28:54;2.07;;;1.40;;
18612;SDS011;9436;52.152;21.032;2022-07-17T09:31:24;3.80;;;1.70;;
18612;SDS011;9436;52.152;21.032;2022-07-17T09:33:52;5.67;;;1.90;;
18612;SDS011;9436;52.152;21.032;2022-07-17T09:36:19;2.53;;;1.60;;
18612;SDS011;9436;52.152;21.032;2022-07-17T09:38:52;3.50;;;1.50;;
18612;SDS011;9436;52.152;21.032;2022-07-17T09:41:20;2.40;;;1.40;;
18612;SDS011;9436;52.152;21.032;2022-07-17T09:43:50;2.73;;;1.57;;
18612;SDS011;9436;52.152;21.032;2022-07-17T09:46:19;2.30;;;1.50;;
18612;SDS011;9436;52.152;21.032;2022-07-17T09:48:48;3.47;;;1.43;;
18612;SDS011;9436;52.152;21.032;2022-07-17T09:51:21;1.90;;;1.70;;
18612;SDS011;9436;52.152;21.032;2022-07-17T09:53:52;1.47;;;1.37;;
18612;SDS011;9436;52.152;21.032;2022-07-17T09:56:20;4.53;;;1.80;;
18612;SDS011;9436;52.152;21.032;2022-07-17T09:58:50;4.00;;;1.60;;
18612;SDS011;9436;52.152;21.032;2022-07-17T10:01:22;3.83;;;1.50;;
18612;SDS011;9436;52.152;21.032;2022-07-17T10:03:49;1.93;;;1.53;;
18612;SDS011;9436;52.152;21.032;2022-07-17T10:06:18;2.00;;;1.60;;
18612;SDS011;9436;52.152;21.032;2022-07-17T10:08:46;3.33;;;1.80;;
18612;SDS011;9436;52.152;21.032;2022-07-17T10:11:15;3.53;;;1.80;;
18612;SDS011;9436;52.152;21.032;2022-07-17T10:13:45;2.30;;;1.90;;
18612;SDS011;9436;52.152;21.032;2022-07-17T10:16:12;2.97;;;1.70;;
18612;SDS011;9436;52.152;21.032;2022-07-17T10:18:40;2.00;;;1.70;;
18612;SDS011;9436;52.152;21.032;2022-07-17T10:21:12;2.90;;;2.07;;
18612;SDS011;9436;52.152;21.032;2022-07-17T10:23:41;2.50;;;1.63;;
18612;SDS011;9436;52.152;21.032;2022-07-17T10:26:09;3.17;;;1.40;;
18612;SDS011;9436;52.152;21.032;2022-07-17T10:28:39;1.40;;;1.30;;
18612;SDS011;9436;52.152;21.032;2022-07-17T10:31:21;2.47;;;1.70;;
18612;SDS011;9436;52.152;21.032;2022-07-17T10:33:54;4.00;;;1.47;;
18612;SDS011;9436;52.152;21.032;2022-07-17T10:36:31;1.77;;;1.50;;
18612;SDS011;9436;52.152;21.032;2022-07-17T10:39:09;1.60;;;1.50;;
18612;SDS011;9436;52.152;21.032;2022-07-17T10:41:37;2.40;;;1.67;;
18612;SDS011;9436;52.152;21.032;2022-07-17T10:44:06;1.60;;;1.50;;
18612;SDS011;9436;52.152;21.032;2022-07-17T10:46:33;2.37;;;1.70;;
18612;SDS011;9436;52.152;21.032;2022-07-17T10:49:02;1.90;;;1.50;;
18612;SDS011;9436;52.152;21.032;2022-07-17T10:51:29;1.97;;;1.43;;
18612;SDS011;9436;52.152;21.032;2022-07-17T10:53:57;4.03;;;1.90;;
18612;SDS011;9436;52.152;21.032;2022-07-17T10:56:25;3.77;;;1.70;;
18612;SDS011;9436;52.152;21.032;2022-07-17T10:58:53;3.97;;;2.00;;
18612;SDS011;9436;52.152;21.032;2022-07-17T11:01:28;1.50;;;1.40;;
18612;SDS011;9436;52.152;21.032;2022-07-17T11:03:56;4.10;;;1.80;;
18612;SDS011;9436;52.152;21.032;2022-07-17T11:06:25;2.33;;;1.50;;
18612;SDS011;9436;52.152;21.032;2022-07-17T11:08:56;1.60;;;1.50;;
18612;SDS011;9436;52.152;21.032;2022-07-17T11:11:34;1.83;;;1.40;;
18612;SDS011;9436;52.152;21.032;2022-07-17T11:14:10;2.73;;;1.80;;
18612;SDS011;9436;52.152;21.032;2022-07-17T11:16:45;2.87;;;1.50;;
18612;SDS011;9436;52.152;21.032;2022-07-17T11:19:19;3.27;;;1.33;;
18612;SDS011;9436;52.152;21.032;2022-07-17T11:21:47;2.27;;;1.57;;
18612;SDS011;9436;52.152;21.032;2022-07-17T11:24:15;2.60;;;1.80;;
18612;SDS011;9436;52.152;21.032;2022-07-17T11:26:43;2.60;;;1.73;;
18612;SDS011;9436;52.152;21.032;2022-07-17T11:29:10;1.70;;;1.57;;
18612;SDS011;9436;52.152;21.032;2022-07-17T11:31:39;2.40;;;1.70;;
18612;SDS011;9436;52.152;21.032;2022-07-17T11:34:08;2.33;;;1.67;;
18612;SDS011;9436;52.152;21.032;2022-07-17T11:36:38;2.57;;;1.70;;
18612;SDS011;9436;52.152;21.032;2022-07-17T11:39:07;1.77;;;1.50;;
18612;SDS011;9436;52.152;21.032;2022-07-17T11:41:37;1.97;;;1.50;;
18612;SDS011;9436;52.152;21.032;2022-07-17T11:44:06;2.77;;;1.30;;
18612;SDS011;9436;52.152;21.032;2022-07-17T11:46:35;2.57;;;1.40;;
18612;SDS011;9436;52.152;21.032;2022-07-17T11:49:03;1.70;;;1.50;;
18612;SDS011;9436;52.152;21.032;2022-07-17T11:51:36;1.63;;;1.40;;
18612;SDS011;9436;52.152;21.032;2022-07-17T11:54:05;1.63;;;1.40;;
18612;SDS011;9436;52.152;21.032;2022-07-17T11:56:33;1.30;;;1.20;;
18612;SDS011;9436;52.152;21.032;2022-07-17T11:59:00;2.27;;;1.37;;
18612;SDS011;9436;52.152;21.032;2022-07-17T12:01:28;1.97;;;1.40;;
18612;SDS011;9436;52.152;21.032;2022-07-17T12:04:03;2.30;;;1.40;;
18612;SDS011;9436;52.152;21.032;2022-07-17T12:06:33;2.93;;;1.70;;
18612;SDS011;9436;52.152;21.032;2022-07-17T12:09:01;2.20;;;1.40;;
18612;SDS011;9436;52.152;21.032;2022-07-17T12:11:28;2.33;;;1.63;;
18612;SDS011;9436;52.152;21.032;2022-07-17T12:14:02;1.93;;;1.33;;
18612;SDS011;9436;52.152;21.032;2022-07-17T12:16:30;1.80;;;1.40;;
18612;SDS011;9436;52.152;21.032;2022-07-17T12:19:01;2.77;;;1.27;;
18612;SDS011;9436;52.152;21.032;2022-07-17T12:21:31;2.27;;;1.53;;
18612;SDS011;9436;52.152;21.032;2022-07-17T12:24:00;2.13;;;1.20;;
18612;SDS011;9436;52.152;21.032;2022-07-17T12:26:31;2.13;;;1.23;;
18612;SDS011;9436;52.152;21.032;2022-07-17T12:28:59;2.17;;;1.50;;
18612;SDS011;9436;52.152;21.032;2022-07-17T12:31:26;1.40;;;1.30;;
18612;SDS011;9436;52.152;21.032;2022-07-17T12:33:53;1.40;;;1.30;;
18612;SDS011;9436;52.152;21.032;2022-07-17T12:36:20;4.30;;;1.40;;
18612;SDS011;9436;52.152;21.032;2022-07-17T12:38:48;2.13;;;1.20;;
18612;SDS011;9436;52.152;21.032;2022-07-17T12:41:17;1.60;;;1.40;;
18612;SDS011;9436;52.152;21.032;2022-07-17T12:43:44;2.83;;;1.60;;
18612;SDS011;9436;52.152;21.032;2022-07-17T12:46:12;2.17;;;1.30;;
18612;SDS011;9436;52.152;21.032;2022-07-17T12:48:39;2.23;;;1.20;;
18612;SDS011;9436;52.152;21.032;2022-07-17T12:51:08;1.37;;;1.20;;
18612;SDS011;9436;52.152;21.032;2022-07-17T12:53:38;1.40;;;1.30;;
18612;SDS011;9436;52.152;21.032;2022-07-17T12:56:06;2.07;;;1.03;;
18612;SDS011;9436;52.152;21.032;2022-07-17T12:58:36;1.80;;;1.00;;
18612;SDS011;9436;52.152;21.032;2022-07-17T13:01:03;1.13;;;1.00;;
18612;SDS011;9436;52.152;21.032;2022-07-17T13:03:31;1.90;;;1.20;;
18612;SDS011;9436;52.152;21.032;2022-07-17T13:05:59;1.50;;;1.00;;
18612;SDS011;9436;52.152;21.032;2022-07-17T13:08:27;1.40;;;1.30;;
18612;SDS011;9436;52.152;21.032;2022-07-17T13:10:54;1.33;;;1.00;;
18612;SDS011;9436;52.152;21.032;2022-07-17T13:13:21;1.83;;;1.17;;
18612;SDS011;9436;52.152;21.032;2022-07-17T13:15:50;1.13;;;1.00;;
18612;SDS011;9436;52.152;21.032;2022-07-17T13:18:17;2.00;;;1.17;;
18612;SDS011;9436;52.152;21.032;2022-07-17T13:20:44;1.30;;;1.20;;
18612;SDS011;9436;52.152;21.032;2022-07-17T13:23:11;1.03;;;1.03;;
18612;SDS011;9436;52.152;21.032;2022-07-17T13:25:38;1.67;;;1.13;;
18612;SDS011;9436;52.152;21.032;2022-07-17T13:28:06;1.67;;;1.00;;
18612;SDS011;9436;52.152;21.032;2022-07-17T13:30:33;1.20;;;1.00;;
18612;SDS011;9436;52.152;21.032;2022-07-17T13:33:01;2.03;;;1.10;;
18612;SDS011;9436;52.152;21.032;2022-07-17T13:35:29;2.60;;;1.17;;
18612;SDS011;9436;52.152;21.032;2022-07-17T13:37:56;1.87;;;1.10;;
18612;SDS011;9436;52.152;21.032;2022-07-17T13:40:25;1.73;;;1.23;;
18612;SDS011;9436;52.152;21.032;2022-07-17T13:42:53;2.53;;;1.13;;
18612;SDS011;9436;52.152;21.032;2022-07-17T13:45:20;1.10;;;1.00;;
18612;SDS011;9436;52.152;21.032;2022-07-17T13:47:47;1.17;;;1.07;;
18612;SDS011;9436;52.152;21.032;2022-07-17T13:50:16;1.80;;;1.17;;
18612;SDS011;9436;52.152;21.032;2022-07-17T13:52:43;1.00;;;0.90;;
18612;SDS011;9436;52.152;21.032;2022-07-17T13:55:10;1.93;;;1.00;;
18612;SDS011;9436;52.152;21.032;2022-07-17T13:57:37;1.40;;;1.00;;
18612;SDS011;9436;52.152;21.032;2022-07-17T14:00:05;1.23;;;1.00;;
18612;SDS011;9436;52.152;21.032;2022-07-17T14:02:33;3.13;;;1.30;;
18612;SDS011;9436;52.152;21.032;2022-07-17T14:05:01;0.83;;;0.83;;
18612;SDS011;9436;52.152;21.032;2022-07-17T14:07:30;1.33;;;1.10;;
18612;SDS011;9436;52.152;21.032;2022-07-17T14:09:57;1.20;;;1.00;;
18612;SDS011;9436;52.152;21.032;2022-07-17T14:12:24;1.10;;;0.93;;
18612;SDS011;9436;52.152;21.032;2022-07-17T14:14:51;1.07;;;0.97;;
18612;SDS011;9436;52.152;21.032;2022-07-17T14:17:18;1.00;;;0.90;;
18612;SDS011;9436;52.152;21.032;2022-07-17T14:19:46;2.67;;;0.97;;
18612;SDS011;9436;52.152;21.032;2022-07-17T14:22:13;1.83;;;1.00;;
18612;SDS011;9436;52.152;21.032;2022-07-17T14:24:41;1.63;;;1.00;;
18612;SDS011;9436;52.152;21.032;2022-07-17T14:27:08;1.30;;;1.00;;
18612;SDS011;9436;52.152;21.032;2022-07-17T14:29:35;1.27;;;1.03;;
18612;SDS011;9436;52.152;21.032;2022-07-17T14:32:02;2.20;;;0.90;;
18612;SDS011;9436;52.152;21.032;2022-07-17T14:34:30;2.43;;;1.20;;
18612;SDS011;9436;52.152;21.032;2022-07-17T14:36:57;1.67;;;1.00;;
18612;SDS011;9436;52.152;21.032;2022-07-17T14:39:25;2.77;;;1.10;;
18612;SDS011;9436;52.152;21.032;2022-07-17T14:41:53;1.43;;;1.20;;
18612;SDS011;9436;52.152;21.032;2022-07-17T14:44:20;1.60;;;0.90;;
18612;SDS011;9436;52.152;21.032;2022-07-17T14:46:47;1.37;;;0.93;;
18612;SDS011;9436;52.152;21.032;2022-07-17T14:49:14;1.50;;;1.10;;
18612;SDS011;9436;52.152;21.032;2022-07-17T14:51:41;1.60;;;1.20;;